createdAt,value
2022-09-12T00:00:48.786Z,16.76
2022-09-12T00:03:18.381Z,16.43
2022-09-12T00:05:49.157Z,16.30
2022-09-12T00:08:22.489Z,16.12
2022-09-12T00:10:52.202Z,16.18
2022-09-12T00:13:21.761Z,16.56
2022-09-12T00:15:51.034Z,16.31
2022-09-12T00:18:20.879Z,16.25
2022-09-12T00:20:50.306Z,15.90
2022-09-12T00:23:19.629Z,16.09
2022-09-12T00:25:52.622Z,16.06
2022-09-12T00:28:21.981Z,15.81
2022-09-12T00:30:51.555Z,15.74
2022-09-12T00:33:21.118Z,15.70
2022-09-12T00:35:53.014Z,15.75
2022-09-12T00:38:23.398Z,15.88
2022-09-12T00:40:53.932Z,15.96
2022-09-12T00:43:39.197Z,15.90
2022-09-12T00:46:17.643Z,15.94
2022-09-12T00:48:53.701Z,15.66
2022-09-12T00:51:24.455Z,15.88
2022-09-12T00:53:56.795Z,15.61
2022-09-12T00:56:29.116Z,15.51
2022-09-12T00:59:06.455Z,15.62
2022-09-12T01:01:36.819Z,15.53
2022-09-12T01:04:06.505Z,15.65
2022-09-12T01:06:38.446Z,15.62
2022-09-12T01:09:08.664Z,15.29
2022-09-12T01:11:41.392Z,15.57
2022-09-12T01:14:10.999Z,15.67
2022-09-12T01:16:40.999Z,15.52
2022-09-12T01:19:37.135Z,15.64
2022-09-12T01:22:20.915Z,15.51
2022-09-12T01:25:07.134Z,15.48
2022-09-12T01:27:49.113Z,15.55
2022-09-12T01:30:34.438Z,15.54
2022-09-12T01:33:27.994Z,15.59
2022-09-12T01:36:05.497Z,15.39
2022-09-12T01:38:40.690Z,15.52
2022-09-12T01:41:14.196Z,15.41
2022-09-12T01:43:49.306Z,14.90
2022-09-12T01:46:28.810Z,14.96
2022-09-12T01:49:03.808Z,15.68
2022-09-12T01:51:38.408Z,15.50
2022-09-12T01:54:11.809Z,15.37
2022-09-12T01:56:44.414Z,15.52
2022-09-12T01:59:21.568Z,15.34
2022-09-12T02:01:57.843Z,15.47
2022-09-12T02:04:34.303Z,15.33
2022-09-12T02:07:12.559Z,15.12
2022-09-12T02:09:47.214Z,15.64
2022-09-12T02:12:27.222Z,15.47
2022-09-12T02:15:03.047Z,15.52
2022-09-12T02:17:38.513Z,15.41
2022-09-12T02:20:21.407Z,14.98
2022-09-12T02:23:08.290Z,15.25
2022-09-12T02:25:43.230Z,15.37
2022-09-12T02:28:16.696Z,15.37
2022-09-12T02:30:56.333Z,15.28
2022-09-12T02:33:32.174Z,15.33
2022-09-12T02:36:14.453Z,15.29
2022-09-12T02:38:46.969Z,15.05
2022-09-12T02:41:20.525Z,15.13
2022-09-12T02:43:51.466Z,15.33
2022-09-12T02:46:23.690Z,15.11
2022-09-12T02:48:54.583Z,15.03
2022-09-12T02:51:24.045Z,15.07
2022-09-12T02:53:55.939Z,15.01
2022-09-12T02:56:28.475Z,15.04
2022-09-12T02:59:04.174Z,14.80
2022-09-12T03:01:56.825Z,15.16
2022-09-12T03:04:56.976Z,14.45
2022-09-12T03:07:44.611Z,14.90
2022-09-12T03:10:23.733Z,15.17
2022-09-12T03:13:03.537Z,14.90
2022-09-12T03:15:43.303Z,14.92
2022-09-12T03:18:24.471Z,14.85
2022-09-12T03:21:04.633Z,15.04
2022-09-12T03:23:39.520Z,15.01
2022-09-12T03:26:14.311Z,15.02
2022-09-12T03:28:45.491Z,14.91
2022-09-12T03:31:17.602Z,14.98
2022-09-12T03:33:48.164Z,15.08
2022-09-12T03:36:24.316Z,15.07
2022-09-12T03:38:54.499Z,14.97
2022-09-12T03:41:24.318Z,15.03
2022-09-12T03:43:53.897Z,14.91
2022-09-12T03:46:23.932Z,14.31
2022-09-12T03:48:53.745Z,14.93
2022-09-12T03:51:24.838Z,14.87
2022-09-12T03:53:54.891Z,14.49
2022-09-12T03:56:24.789Z,14.86
2022-09-12T03:58:54.714Z,14.72
2022-09-12T04:01:25.481Z,14.95
2022-09-12T04:03:55.525Z,14.66
2022-09-12T04:06:26.936Z,14.57
2022-09-12T04:08:57.331Z,14.87
2022-09-12T04:11:27.242Z,14.69
2022-09-12T04:13:57.080Z,14.55
2022-09-12T04:16:26.914Z,14.78
2022-09-12T04:18:57.411Z,14.67
2022-09-12T04:21:28.663Z,14.63
2022-09-12T04:24:06.296Z,14.61
2022-09-12T04:26:35.586Z,14.73
2022-09-12T04:29:05.240Z,14.66
2022-09-12T04:31:34.045Z,14.73
2022-09-12T04:34:03.054Z,13.96
2022-09-12T04:36:34.351Z,14.64
2022-09-12T04:39:06.140Z,14.79
2022-09-12T04:41:37.189Z,14.92
2022-09-12T04:44:08.661Z,14.79
2022-09-12T04:46:42.043Z,14.79
2022-09-12T04:49:11.248Z,14.53
2022-09-12T04:51:43.213Z,14.72
2022-09-12T04:54:15.176Z,14.79
2022-09-12T04:56:45.784Z,14.74
2022-09-12T04:59:15.873Z,13.90
2022-09-12T05:01:44.898Z,14.57
2022-09-12T05:04:14.712Z,14.57
2022-09-12T05:06:47.420Z,14.46
2022-09-12T05:09:17.135Z,14.53
2022-09-12T05:12:03.867Z,14.66
2022-09-12T05:14:35.254Z,14.66
2022-09-12T05:17:06.122Z,14.71
2022-09-12T05:19:37.044Z,14.49
2022-09-12T05:22:07.377Z,14.41
2022-09-12T05:24:37.874Z,14.47
2022-09-12T05:27:06.685Z,14.69
2022-09-12T05:29:36.001Z,14.96
2022-09-12T05:32:07.321Z,14.65
2022-09-12T05:34:37.891Z,14.67
2022-09-12T05:37:08.097Z,14.56
2022-09-12T05:39:36.852Z,14.75
2022-09-12T05:42:09.282Z,14.58
2022-09-12T05:44:38.040Z,14.59
2022-09-12T05:47:07.155Z,14.65
2022-09-12T05:49:37.226Z,14.20
2022-09-12T05:52:07.718Z,14.71
2022-09-12T05:54:36.956Z,14.05
2022-09-12T05:57:06.175Z,14.43
2022-09-12T05:59:34.888Z,14.61
2022-09-12T06:02:04.366Z,14.40
2022-09-12T06:04:33.698Z,14.52
2022-09-12T06:07:02.963Z,14.07
2022-09-12T06:09:33.063Z,14.58
2022-09-12T06:12:05.023Z,14.72
2022-09-12T06:14:34.205Z,14.57
2022-09-12T06:17:03.099Z,14.52
2022-09-12T06:19:32.183Z,14.54
2022-09-12T06:22:03.225Z,14.57
2022-09-12T06:24:33.535Z,14.81
2022-09-12T06:27:02.812Z,14.56
2022-09-12T06:29:34.018Z,14.80
2022-09-12T06:32:05.455Z,14.57
2022-09-12T06:34:34.085Z,14.78
2022-09-12T06:37:04.121Z,14.94
2022-09-12T06:39:36.705Z,14.85
2022-09-12T06:42:05.705Z,15.00
2022-09-12T06:44:37.983Z,15.12
2022-09-12T06:47:09.154Z,15.09
2022-09-12T06:49:38.452Z,15.09
2022-09-12T06:52:07.627Z,15.16
2022-09-12T06:54:37.836Z,15.48
2022-09-12T06:57:07.519Z,15.36
2022-09-12T06:59:36.417Z,15.66
2022-09-12T07:02:05.654Z,16.06
2022-09-12T07:04:36.887Z,16.12
2022-09-12T07:07:05.855Z,16.35
2022-09-12T07:09:34.925Z,16.47
2022-09-12T07:12:06.372Z,16.36
2022-09-12T07:14:35.153Z,16.31
2022-09-12T07:17:12.888Z,16.41
2022-09-12T07:19:42.084Z,16.41
2022-09-12T07:22:11.034Z,16.66
2022-09-12T07:24:42.499Z,16.45
2022-09-12T07:27:13.164Z,16.50
2022-09-12T07:29:42.475Z,16.72
2022-09-12T07:32:12.196Z,16.77
2022-09-12T07:34:40.891Z,16.72
2022-09-12T07:37:09.659Z,16.98
2022-09-12T07:39:39.037Z,17.11
2022-09-12T07:42:12.754Z,17.22
2022-09-12T07:44:44.507Z,17.63
2022-09-12T07:47:13.445Z,17.67
2022-09-12T07:49:42.297Z,17.88
2022-09-12T07:52:13.393Z,17.99
2022-09-12T07:54:42.329Z,18.17
2022-09-12T07:57:11.218Z,18.33
2022-09-12T07:59:52.550Z,18.52
2022-09-12T08:02:23.514Z,18.77
2022-09-12T08:04:55.361Z,18.86
2022-09-12T08:07:24.331Z,18.74
2022-09-12T08:09:53.529Z,18.68
2022-09-12T08:12:22.689Z,18.94
2022-09-12T08:14:51.570Z,19.01
2022-09-12T08:17:20.721Z,19.29
2022-09-12T08:19:51.130Z,19.40
2022-09-12T08:22:22.114Z,19.35
2022-09-12T08:24:51.352Z,19.46
2022-09-12T08:27:22.642Z,19.64
2022-09-12T08:29:52.030Z,19.74
2022-09-12T08:32:21.012Z,19.84
2022-09-12T08:34:51.632Z,19.68
2022-09-12T08:37:20.414Z,20.08
2022-09-12T08:39:49.219Z,20.19
2022-09-12T08:42:30.996Z,20.34
2022-09-12T08:45:16.598Z,20.43
2022-09-12T08:47:47.463Z,20.45
2022-09-12T08:50:20.582Z,20.85
2022-09-12T08:52:58.744Z,20.83
2022-09-12T08:55:32.930Z,21.01
2022-09-12T08:58:07.177Z,21.08
2022-09-12T09:00:47.744Z,20.58
2022-09-12T09:03:40.082Z,21.26
2022-09-12T09:06:22.380Z,21.56
2022-09-12T09:09:05.840Z,21.54
2022-09-12T09:11:53.231Z,21.68
2022-09-12T09:14:50.791Z,21.72
2022-09-12T09:17:28.187Z,21.98
2022-09-12T09:20:06.944Z,22.08
2022-09-12T09:22:45.007Z,22.28
2022-09-12T09:25:23.045Z,22.37
2022-09-12T09:27:59.578Z,22.47
2022-09-12T09:30:29.143Z,22.69
2022-09-12T09:33:01.482Z,22.96
2022-09-12T09:35:45.678Z,23.01
2022-09-12T09:38:24.735Z,23.11
2022-09-12T09:41:06.729Z,23.41
2022-09-12T09:43:35.777Z,23.35
2022-09-12T09:46:05.423Z,23.40
2022-09-12T09:48:37.109Z,23.45
2022-09-12T09:51:09.278Z,23.45
2022-09-12T09:53:46.867Z,23.59
2022-09-12T09:56:28.178Z,23.91
2022-09-12T09:58:57.054Z,23.97
2022-09-12T10:01:27.537Z,24.02
2022-09-12T10:03:57.294Z,24.12
2022-09-12T10:06:34.434Z,23.98
2022-09-12T10:09:19.908Z,23.66
2022-09-12T10:11:49.570Z,24.12
2022-09-12T10:14:37.174Z,24.02
2022-09-12T10:17:25.923Z,23.72
2022-09-12T10:20:17.505Z,23.61
2022-09-12T10:22:48.774Z,24.03
2022-09-12T10:25:20.759Z,23.90
2022-09-12T10:27:55.503Z,24.03
2022-09-12T10:30:28.698Z,23.98
2022-09-12T10:33:10.284Z,23.92
2022-09-12T10:35:49.809Z,23.67
2022-09-12T10:38:24.582Z,23.61
2022-09-12T10:41:00.084Z,23.87
2022-09-12T10:43:31.324Z,23.90
2022-09-12T10:46:21.011Z,24.47
2022-09-12T10:48:51.588Z,24.32
2022-09-12T10:51:29.366Z,24.43
2022-09-12T10:54:03.021Z,24.37
2022-09-12T10:56:42.231Z,24.20
2022-09-12T10:59:25.747Z,24.35
2022-09-12T11:02:01.168Z,24.38
2022-09-12T11:04:42.954Z,24.48
2022-09-12T11:26:51.068Z,24.74
2022-09-12T11:29:37.031Z,24.89
2022-09-12T11:32:23.524Z,24.42
2022-09-12T11:35:02.474Z,24.46
2022-09-12T11:37:46.225Z,24.59
2022-09-12T11:40:28.614Z,24.87
2022-09-12T11:43:06.955Z,24.75
2022-09-12T11:45:41.067Z,24.74
2022-09-12T11:48:16.515Z,24.84
2022-09-12T11:50:45.185Z,25.18
2022-09-12T11:53:21.316Z,24.68
2022-09-12T11:55:56.546Z,24.98
2022-09-12T11:58:29.338Z,24.98
2022-09-12T12:01:07.738Z,25.05
2022-09-12T12:03:43.367Z,24.90
2022-09-12T12:06:19.116Z,25.14
2022-09-12T12:08:50.537Z,24.92
2022-09-12T12:11:32.199Z,24.68
2022-09-12T12:14:05.703Z,24.82
2022-09-12T12:16:38.297Z,24.98
2022-09-12T12:19:10.833Z,24.85
2022-09-12T12:21:42.413Z,24.66
2022-09-12T12:24:20.535Z,24.83
2022-09-12T12:26:58.602Z,24.85
2022-09-12T12:29:47.375Z,24.63
2022-09-12T12:32:25.438Z,24.18
2022-09-12T12:35:18.613Z,24.49
2022-09-12T12:37:53.278Z,24.26
2022-09-12T12:40:28.639Z,24.38
2022-09-12T12:43:22.677Z,24.46
2022-09-12T12:46:04.929Z,24.39
2022-09-12T12:48:46.266Z,24.29
2022-09-12T12:52:01.258Z,24.40
2022-09-12T12:54:53.700Z,24.52
2022-09-12T12:57:37.175Z,24.32
2022-09-12T13:00:09.837Z,24.20
2022-09-12T13:02:41.459Z,24.35
2022-09-12T13:05:21.044Z,24.31
2022-09-12T13:07:55.750Z,24.43
2022-09-12T13:10:29.905Z,24.63
2022-09-12T13:13:03.422Z,24.85
2022-09-12T13:15:55.837Z,24.63
2022-09-12T13:18:32.808Z,24.37
2022-09-12T13:21:09.138Z,24.37
2022-09-12T13:23:37.925Z,24.43
2022-09-12T13:26:12.897Z,24.74
2022-09-12T13:28:41.674Z,24.76
2022-09-12T13:31:19.396Z,24.62
2022-09-12T13:33:54.587Z,24.55
2022-09-12T13:36:58.605Z,24.90
2022-09-12T13:39:30.044Z,24.71
2022-09-12T13:42:31.077Z,24.47
2022-09-12T13:45:03.281Z,24.57
2022-09-12T13:47:34.602Z,24.61
2022-09-12T13:50:07.245Z,24.41
2022-09-12T13:52:37.111Z,24.50
2022-09-12T13:55:09.136Z,24.47
2022-09-12T13:57:41.368Z,24.40
2022-09-12T14:00:19.376Z,24.30
2022-09-12T14:02:49.276Z,23.63
2022-09-12T14:05:22.588Z,23.89
2022-09-12T14:07:58.420Z,24.00
2022-09-12T14:10:33.155Z,23.87
2022-09-12T14:13:05.534Z,24.06
2022-09-12T14:15:38.234Z,23.85
2022-09-12T14:18:08.747Z,23.73
2022-09-12T14:20:39.922Z,23.76
2022-09-12T14:23:21.109Z,23.74
2022-09-12T14:25:52.135Z,23.96
2022-09-12T14:28:23.593Z,23.82
2022-09-12T14:31:00.689Z,23.84
2022-09-12T14:33:30.261Z,24.05
2022-09-12T14:36:13.199Z,23.97
2022-09-12T14:38:43.456Z,24.00
2022-09-12T14:41:15.318Z,23.97
2022-09-12T14:43:47.196Z,23.86
2022-09-12T14:46:20.640Z,23.93
2022-09-12T14:48:52.338Z,23.86
2022-09-12T14:51:28.501Z,24.11
2022-09-12T14:53:58.453Z,24.13
2022-09-12T14:56:40.125Z,23.99
2022-09-12T14:59:31.932Z,23.54
2022-09-12T15:02:24.217Z,23.96
2022-09-12T15:04:55.384Z,23.66
2022-09-12T15:07:33.945Z,23.68
2022-09-12T15:10:06.662Z,23.39
2022-09-12T15:12:35.146Z,23.42
2022-09-12T15:15:15.833Z,23.43
2022-09-12T15:17:46.896Z,23.50
2022-09-12T15:20:17.948Z,23.93
2022-09-12T15:22:48.164Z,23.74
2022-09-12T15:25:17.030Z,23.83
2022-09-12T15:27:46.381Z,23.92
2022-09-12T15:30:15.791Z,23.82
2022-09-12T15:32:45.458Z,23.81
2022-09-12T15:35:17.257Z,23.77
2022-09-12T15:37:47.278Z,23.80
2022-09-12T15:40:16.539Z,23.71
2022-09-12T15:42:45.640Z,23.71
2022-09-12T15:45:19.556Z,23.43
2022-09-12T15:47:50.589Z,23.67
2022-09-12T15:50:19.385Z,23.24
2022-09-12T15:52:49.630Z,23.12
2022-09-12T15:55:24.458Z,23.12
2022-09-12T15:57:53.173Z,23.16
2022-09-12T16:00:25.038Z,23.15
2022-09-12T16:02:54.676Z,23.11
2022-09-12T16:05:25.264Z,23.20
2022-09-12T16:07:56.459Z,23.08
2022-09-12T16:10:28.970Z,23.13
2022-09-12T16:12:58.335Z,22.96
2022-09-12T16:15:27.453Z,22.89
2022-09-12T16:17:56.155Z,22.76
2022-09-12T16:20:24.923Z,23.03
2022-09-12T16:22:57.319Z,22.94
2022-09-12T16:25:26.529Z,22.80
2022-09-12T16:27:55.337Z,22.63
2022-09-12T16:30:24.132Z,22.56
2022-09-12T16:32:53.571Z,22.80
2022-09-12T16:35:22.754Z,22.66
2022-09-12T16:37:51.746Z,22.40
2022-09-12T16:40:21.850Z,22.61
2022-09-12T16:42:52.980Z,22.54
2022-09-12T16:45:23.933Z,22.53
2022-09-12T16:47:52.579Z,22.45
2022-09-12T16:50:21.352Z,22.37
2022-09-12T16:52:50.010Z,22.36
2022-09-12T16:55:18.668Z,22.34
2022-09-12T16:57:50.918Z,22.17
2022-09-12T17:00:19.653Z,22.21
2022-09-12T17:02:50.523Z,22.05
2022-09-12T17:05:19.398Z,22.09
2022-09-12T17:07:48.014Z,22.08
2022-09-12T17:10:16.746Z,22.01
2022-09-12T17:12:45.445Z,21.04
2022-09-12T17:15:16.284Z,22.01
2022-09-12T17:17:45.836Z,21.93
2022-09-12T17:20:14.562Z,22.00
2022-09-12T17:22:46.209Z,22.01
2022-09-12T17:25:15.009Z,22.00
2022-09-12T17:27:43.722Z,22.01
2022-09-12T17:30:13.147Z,21.94
2022-09-12T17:32:43.166Z,21.91
2022-09-12T17:35:12.596Z,21.90
2022-09-12T17:37:41.687Z,21.87
2022-09-12T17:40:11.226Z,21.85
2022-09-12T17:42:41.008Z,21.84
2022-09-12T17:45:18.321Z,21.81
2022-09-12T17:47:50.761Z,21.73
2022-09-12T17:50:31.592Z,21.66
2022-09-12T17:53:03.796Z,21.54
2022-09-12T17:55:38.217Z,21.58
2022-09-12T17:58:08.203Z,21.53
2022-09-12T18:00:57.364Z,21.47
2022-09-12T18:03:27.896Z,21.42
2022-09-12T18:05:57.577Z,21.38
2022-09-12T18:08:26.581Z,21.36
2022-09-12T18:10:55.228Z,21.31
2022-09-12T18:13:26.417Z,21.30
2022-09-12T18:16:04.358Z,21.26
2022-09-12T18:18:35.224Z,21.19
2022-09-12T18:21:04.177Z,20.67
2022-09-12T18:23:35.480Z,20.67
2022-09-12T18:26:06.672Z,20.91
2022-09-12T18:28:36.152Z,20.98
2022-09-12T18:31:05.859Z,20.99
2022-09-12T18:33:36.034Z,20.98
2022-09-12T18:36:05.824Z,20.87
2022-09-12T18:38:34.679Z,20.92
2022-09-12T18:41:04.579Z,20.88
2022-09-12T18:43:33.912Z,20.85
2022-09-12T18:46:06.412Z,20.81
2022-09-12T18:48:37.122Z,20.72
2022-09-12T18:51:08.230Z,20.66
2022-09-12T18:53:39.998Z,20.60
2022-09-12T18:56:10.687Z,20.66
2022-09-12T18:58:42.084Z,20.57
2022-09-12T19:01:12.296Z,20.54
2022-09-12T19:03:43.066Z,20.69
2022-09-12T19:06:13.641Z,20.51
2022-09-12T19:08:42.774Z,20.46
2022-09-12T19:11:14.145Z,20.47
2022-09-12T19:13:48.490Z,20.45
2022-09-12T19:16:18.916Z,20.41
2022-09-12T19:18:49.896Z,20.39
2022-09-12T19:21:21.256Z,19.93
2022-09-12T19:23:54.527Z,20.39
2022-09-12T19:26:29.086Z,20.46
2022-09-12T19:29:02.583Z,20.41
2022-09-12T19:31:31.717Z,20.39
2022-09-12T19:34:02.687Z,20.39
2022-09-12T19:36:51.738Z,20.38
2022-09-12T19:39:28.651Z,20.43
2022-09-12T19:41:57.876Z,20.43
2022-09-12T19:44:27.698Z,20.43
2022-09-12T19:46:58.016Z,20.44
2022-09-12T19:49:36.816Z,20.09
2022-09-12T19:52:07.699Z,20.38
2022-09-12T19:54:41.782Z,20.34
2022-09-12T19:57:13.299Z,20.38
2022-09-12T19:59:48.276Z,20.36
2022-09-12T20:02:19.457Z,20.30
2022-09-12T20:04:52.790Z,20.25
2022-09-12T20:07:22.205Z,20.39
2022-09-12T20:09:51.258Z,20.13
2022-09-12T20:12:21.047Z,19.72
2022-09-12T20:14:51.936Z,20.36
2022-09-12T20:17:22.223Z,20.13
2022-09-12T20:19:54.653Z,20.05
2022-09-12T20:22:25.752Z,20.05
2022-09-12T20:24:57.197Z,20.00
2022-09-12T20:27:28.121Z,19.93
2022-09-12T20:30:01.841Z,19.87
2022-09-12T20:32:30.877Z,19.86
2022-09-12T20:35:00.991Z,19.81
2022-09-12T20:37:31.043Z,19.63
2022-09-12T20:39:59.862Z,19.78
2022-09-12T20:42:38.101Z,19.80
2022-09-12T20:45:09.571Z,19.79
2022-09-12T20:47:38.243Z,19.76
2022-09-12T20:50:09.277Z,19.79
2022-09-12T20:52:37.971Z,19.76
2022-09-12T20:55:07.637Z,19.74
2022-09-12T20:57:36.499Z,19.70
2022-09-12T21:00:07.460Z,19.70
2022-09-12T21:02:36.258Z,19.57
2022-09-12T21:05:05.479Z,19.66
2022-09-12T21:07:35.546Z,19.58
2022-09-12T21:10:04.622Z,19.67
2022-09-12T21:12:33.311Z,19.56
2022-09-12T21:15:02.001Z,19.61
2022-09-12T21:17:33.184Z,19.64
2022-09-12T21:20:02.231Z,19.63
2022-09-12T21:22:33.423Z,19.60
2022-09-12T21:25:03.583Z,19.61
2022-09-12T21:27:32.431Z,19.60
2022-09-12T21:30:03.403Z,19.61
2022-09-12T21:32:34.770Z,19.57
2022-09-12T21:35:04.176Z,19.54
2022-09-12T21:37:33.171Z,19.47
2022-09-12T21:40:03.726Z,19.05
2022-09-12T21:42:32.929Z,19.46
2022-09-12T21:45:01.615Z,19.47
2022-09-12T21:47:30.369Z,19.08
2022-09-12T21:50:01.478Z,19.46
2022-09-12T21:52:30.427Z,19.46
2022-09-12T21:54:59.185Z,19.44
2022-09-12T21:57:29.254Z,19.46
2022-09-12T21:59:57.938Z,19.46
2022-09-12T22:02:28.363Z,19.46
2022-09-12T22:04:57.350Z,19.45
2022-09-12T22:07:26.497Z,18.80
2022-09-12T22:09:55.325Z,19.43
2022-09-12T22:12:27.489Z,19.48
2022-09-12T22:14:57.513Z,19.48
2022-09-12T22:17:26.272Z,19.38
2022-09-12T22:19:54.953Z,19.40
2022-09-12T22:22:41.263Z,18.95
2022-09-12T22:25:11.321Z,19.36
2022-09-12T22:27:40.276Z,18.87
2022-09-12T22:30:11.874Z,19.35
2022-09-12T22:32:40.563Z,19.41
2022-09-12T22:35:09.686Z,19.44
2022-09-12T22:37:38.288Z,19.37
2022-09-12T22:40:07.830Z,19.39
2022-09-12T22:42:37.103Z,19.41
2022-09-12T22:45:07.689Z,19.38
2022-09-12T22:47:37.893Z,19.39
2022-09-12T22:50:07.757Z,19.42
2022-09-12T22:52:38.783Z,19.37
2022-09-12T22:55:10.917Z,19.39
2022-09-12T22:57:39.802Z,19.23
2022-09-12T23:00:10.587Z,19.37
2022-09-12T23:02:42.810Z,19.32
2022-09-12T23:05:11.713Z,19.36
2022-09-12T23:07:40.484Z,19.36
2022-09-12T23:10:10.704Z,19.35
2022-09-12T23:12:39.413Z,19.36
2022-09-12T23:15:10.179Z,19.34
2022-09-12T23:17:38.884Z,19.33
2022-09-12T23:20:10.125Z,19.35
2022-09-12T23:22:38.852Z,19.33
2022-09-12T23:25:10.028Z,19.33
2022-09-12T23:27:40.110Z,19.29
2022-09-12T23:30:10.464Z,19.31
2022-09-12T23:32:39.551Z,19.33
2022-09-12T23:35:09.961Z,19.37
2022-09-12T23:37:38.633Z,19.34
2022-09-12T23:40:08.924Z,19.32
2022-09-12T23:42:37.731Z,19.31
2022-09-12T23:45:07.036Z,19.28
2022-09-12T23:47:35.666Z,19.20
2022-09-12T23:50:04.875Z,19.25
2022-09-12T23:52:35.197Z,19.28
2022-09-12T23:55:03.931Z,19.24
2022-09-12T23:57:32.589Z,19.25
